tititudorancea.com
Station Historical Data
Daily Summary for January 12, 2019 Units:  Both    English   Metric
« Previous Day
Next Day »
Daily Weekly Monthly Yearly Custom
  High: Low: Average:
Temperature: TemperatureF °F /  -17.8 °C 55.5 °F /  13.1 °C 69.6 °F /  20.9 °C
Dew Point: DewpointF °F /  -17.8 °C 40.9 °F /  4.9 °C 48.1 °F /  8.9 °C
Humidity: Humidity % 33 % 48 %
Wind Speed: WindSpeedMPH mph /  0 km/h - 11 mph /  17.7 km/h
Wind Gust: WindSpeedGustMPH mph /  0 km/h - -
Wind:- - South
Pressure: PressureIn in /  0 hPa 29.81 in /  1009.4 hPa -
Precipitation: 0.00 in /  0 mm    
Historical Graphs
 
 
Ararat weather Find more about Weather in Ararat, AU


 



 


Tabular Data for January 12, 2019
Time Temperature Dew Point Pressure Wind Wind Speed Wind Gust Humidity Rainfall Rate (Hourly)
TemperatureF °F /  -17.8 °C DewpointF °F /  -17.8 °C PressureIn in /  0 hPa Calm     Humidity % HourlyPrecipIn in /  0 mm
00:04 69.7 °F /  20.9 °C 44.9 °F /  7.2 °C 29.83 in /  1010 hPa SSW 2.0 mph /  3.2 km/h 0.4 mph /  0.6 km/h 41 % 0.00 in /  0 mm
00:09 69.5 °F /  20.8 °C 44.8 °F /  7.1 °C 29.83 in /  1010 hPa SSW 3.5 mph /  5.6 km/h 2.1 mph /  3.4 km/h 41 % 0.00 in /  0 mm
00:14 69.6 °F /  20.9 °C 44.2 °F /  6.8 °C 29.83 in /  1010 hPa SSW 3.5 mph /  5.6 km/h 1.7 mph /  2.7 km/h 40 % 0.00 in /  0 mm
00:19 69.9 °F /  21.1 °C 43.8 °F /  6.6 °C 29.82 in /  1009.7 hPa SSW 1.0 mph /  1.6 km/h 0.6 mph /  1 km/h 39 % 0.00 in /  0 mm
00:24 70.1 °F /  21.2 °C 44.0 °F /  6.7 °C 29.82 in /  1009.7 hPa SSW 2.3 mph /  3.7 km/h 0.3 mph /  0.5 km/h 39 % 0.00 in /  0 mm
00:29 70.0 °F /  21.1 °C 43.9 °F /  6.6 °C 29.83 in /  1010 hPa SSW 2.3 mph /  3.7 km/h 1.6 mph /  2.6 km/h 39 % 0.00 in /  0 mm
00:34 69.6 °F /  20.9 °C 44.2 °F /  6.8 °C 29.83 in /  1010 hPa SSW 1.0 mph /  1.6 km/h   40 % 0.00 in /  0 mm
00:39 69.1 °F /  20.6 °C 44.4 °F /  6.9 °C 29.83 in /  1010 hPa SSW 2.3 mph /  3.7 km/h 0.9 mph /  1.4 km/h 41 % 0.00 in /  0 mm
00:44 68.6 °F /  20.3 °C 44.6 °F /  7 °C 29.83 in /  1010 hPa Calm     42 % 0.00 in /  0 mm
00:49 68.4 °F /  20.2 °C 44.4 °F /  6.9 °C 29.83 in /  1010 hPa Calm     42 % 0.00 in /  0 mm
00:54 68.0 °F /  20 °C 44.7 °F /  7.1 °C 29.82 in /  1009.7 hPa SSW 2.3 mph /  3.7 km/h 1.4 mph /  2.3 km/h 43 % 0.00 in /  0 mm
00:59 67.5 °F /  19.7 °C 44.8 °F /  7.1 °C 29.82 in /  1009.7 hPa Calm     44 % 0.00 in /  0 mm
01:04 67.1 °F /  19.5 °C 45.0 °F /  7.2 °C 29.82 in /  1009.7 hPa SSW 3.5 mph /  5.6 km/h 0.4 mph /  0.6 km/h 45 % 0.00 in /  0 mm
01:09 66.8 °F /  19.3 °C 45.3 °F /  7.4 °C 29.82 in /  1009.7 hPa SSW 4.0 mph /  6.4 km/h 2.9 mph /  4.7 km/h 46 % 0.00 in /  0 mm
01:14 66.5 °F /  19.2 °C 45.1 °F /  7.3 °C 29.82 in /  1009.7 hPa SSW 2.3 mph /  3.7 km/h 0.6 mph /  1 km/h 46 % 0.00 in /  0 mm
01:19 66.4 °F /  19.1 °C 45.0 °F /  7.2 °C 29.82 in /  1009.7 hPa North 1.2 mph /  1.9 km/h   46 % 0.00 in /  0 mm
01:24 66.1 °F /  18.9 °C 45.3 °F /  7.4 °C 29.82 in /  1009.7 hPa SSW 1.0 mph /  1.6 km/h 0.2 mph /  0.3 km/h 47 % 0.00 in /  0 mm
01:29 65.7 °F /  18.7 °C 45.5 °F /  7.5 °C 29.82 in /  1009.7 hPa Calm     48 % 0.00 in /  0 mm
01:34 65.5 °F /  18.6 °C 45.3 °F /  7.4 °C 29.82 in /  1009.7 hPa Calm     48 % 0.00 in /  0 mm
01:39 65.1 °F /  18.4 °C 45.5 °F /  7.5 °C 29.82 in /  1009.7 hPa SSW 1.0 mph /  1.6 km/h 0.3 mph /  0.5 km/h 49 % 0.00 in /  0 mm
01:44 64.7 °F /  18.2 °C 45.6 °F /  7.6 °C 29.82 in /  1009.7 hPa Calm     50 % 0.00 in /  0 mm
01:49 64.4 °F /  18 °C 45.3 °F /  7.4 °C 29.82 in /  1009.7 hPa Calm     50 % 0.00 in /  0 mm
01:54 64.0 °F /  17.8 °C 45.5 °F /  7.5 °C 29.82 in /  1009.7 hPa Calm     51 % 0.00 in /  0 mm
01:59 63.5 °F /  17.5 °C 45.6 °F /  7.6 °C 29.82 in /  1009.7 hPa Calm     52 % 0.00 in /  0 mm
02:04 63.2 °F /  17.3 °C 45.8 °F /  7.7 °C 29.82 in /  1009.7 hPa Calm     53 % 0.00 in /  0 mm
02:09 62.9 °F /  17.2 °C 46.0 °F /  7.8 °C 29.82 in /  1009.7 hPa Calm     54 % 0.00 in /  0 mm
02:14 62.6 °F /  17 °C 46.2 °F /  7.9 °C 29.82 in /  1009.7 hPa Calm     55 % 0.00 in /  0 mm
02:19 62.4 °F /  16.9 °C 46.0 °F /  7.8 °C 29.82 in /  1009.7 hPa Calm     55 % 0.00 in /  0 mm
02:24 62.3 °F /  16.8 °C 46.4 °F /  8 °C 29.82 in /  1009.7 hPa Calm     56 % 0.00 in /  0 mm
02:29 62.3 °F /  16.8 °C 46.4 °F /  8 °C 29.82 in /  1009.7 hPa Calm     56 % 0.00 in /  0 mm
02:34 62.3 °F /  16.8 °C 46.4 °F /  8 °C 29.82 in /  1009.7 hPa Calm     56 % 0.00 in /  0 mm
02:39 62.3 °F /  16.8 °C 46.4 °F /  8 °C 29.82 in /  1009.7 hPa Calm     56 % 0.00 in /  0 mm
02:44 62.4 °F /  16.9 °C 46.0 °F /  7.8 °C 29.82 in /  1009.7 hPa Calm     55 % 0.00 in /  0 mm
02:49 62.5 °F /  16.9 °C 46.6 °F /  8.1 °C 29.82 in /  1009.7 hPa Calm     56 % 0.00 in /  0 mm
02:54 62.6 °F /  17 °C 46.7 °F /  8.2 °C 29.81 in /  1009.4 hPa Calm     56 % 0.00 in /  0 mm
02:59 62.6 °F /  17 °C 46.7 °F /  8.2 °C 29.81 in /  1009.4 hPa Calm     56 % 0.00 in /  0 mm
03:04 62.6 °F /  17 °C 47.1 °F /  8.4 °C 29.81 in /  1009.4 hPa Calm     57 % 0.00 in /  0 mm
03:09 62.6 °F /  17 °C 47.1 °F /  8.4 °C 29.81 in /  1009.4 hPa Calm     57 % 0.00 in /  0 mm
03:14 62.6 °F /  17 °C 47.1 °F /  8.4 °C 29.81 in /  1009.4 hPa Calm     57 % 0.00 in /  0 mm
03:19 62.5 °F /  16.9 °C 48.0 °F /  8.9 °C 29.81 in /  1009.4 hPa Calm     59 % 0.00 in /  0 mm
03:24 62.4 °F /  16.9 °C 47.0 °F /  8.3 °C 29.81 in /  1009.4 hPa Calm     57 % 0.00 in /  0 mm
03:29 62.4 °F /  16.9 °C 47.0 °F /  8.3 °C 29.81 in /  1009.4 hPa Calm     57 % 0.00 in /  0 mm
03:34 62.2 °F /  16.8 °C 47.2 °F /  8.4 °C 29.81 in /  1009.4 hPa Calm     58 % 0.00 in /  0 mm
03:39 62.1 °F /  16.7 °C 47.6 °F /  8.7 °C 29.81 in /  1009.4 hPa SSW 3.5 mph /  5.6 km/h 2.0 mph /  3.2 km/h 59 % 0.00 in /  0 mm
03:44 62.0 °F /  16.7 °C 47.5 °F /  8.6 °C 29.82 in /  1009.7 hPa SSW 1.2 mph /  1.9 km/h   59 % 0.00 in /  0 mm
03:49 61.9 °F /  16.6 °C 47.4 °F /  8.6 °C 29.81 in /  1009.4 hPa Calm     59 % 0.00 in /  0 mm
03:54 61.7 °F /  16.5 °C 47.2 °F /  8.4 °C 29.81 in /  1009.4 hPa Calm     59 % 0.00 in /  0 mm
03:59 61.5 °F /  16.4 °C 47.5 °F /  8.6 °C 29.81 in /  1009.4 hPa Calm     60 % 0.00 in /  0 mm
04:04 61.1 °F /  16.2 °C 47.1 °F /  8.4 °C 29.81 in /  1009.4 hPa Calm     60 % 0.00 in /  0 mm
04:09 60.8 °F /  16 °C 47.3 °F /  8.5 °C 29.82 in /  1009.7 hPa Calm     61 % 0.00 in /  0 mm
04:14 60.8 °F /  16 °C 47.3 °F /  8.5 °C 29.82 in /  1009.7 hPa SSW 3.5 mph /  5.6 km/h 1.4 mph /  2.3 km/h 61 % 0.00 in /  0 mm
04:19 61.2 °F /  16.2 °C 47.6 °F /  8.7 °C 29.82 in /  1009.7 hPa Calm     61 % 0.00 in /  0 mm
04:24 61.5 °F /  16.4 °C 47.5 °F /  8.6 °C 29.82 in /  1009.7 hPa Calm     60 % 0.00 in /  0 mm
04:29 61.6 °F /  16.4 °C 47.6 °F /  8.7 °C 29.83 in /  1010 hPa SSW 3.5 mph /  5.6 km/h 1.6 mph /  2.6 km/h 60 % 0.00 in /  0 mm
04:34 61.8 °F /  16.6 °C 47.8 °F /  8.8 °C 29.83 in /  1010 hPa Calm     60 % 0.00 in /  0 mm
04:39 61.8 °F /  16.6 °C 47.3 °F /  8.5 °C 29.83 in /  1010 hPa Calm     59 % 0.00 in /  0 mm
04:44 61.8 °F /  16.6 °C 47.8 °F /  8.8 °C 29.83 in /  1010 hPa Calm     60 % 0.00 in /  0 mm
04:49 61.7 °F /  16.5 °C 47.2 °F /  8.4 °C 29.84 in /  1010.4 hPa Calm     59 % 0.00 in /  0 mm
04:54 61.7 °F /  16.5 °C 47.2 °F /  8.4 °C 29.84 in /  1010.4 hPa Calm     59 % 0.00 in /  0 mm
04:59 61.5 °F /  16.4 °C 47.5 °F /  8.6 °C 29.84 in /  1010.4 hPa Calm     60 % 0.00 in /  0 mm
05:04 61.3 °F /  16.3 °C 47.3 °F /  8.5 °C 29.84 in /  1010.4 hPa Calm     60 % 0.00 in /  0 mm
05:09 61.1 °F /  16.2 °C 47.5 °F /  8.6 °C 29.84 in /  1010.4 hPa Calm     61 % 0.00 in /  0 mm
05:14 61.1 °F /  16.2 °C 48.0 °F /  8.9 °C 29.86 in /  1011.1 hPa Calm     62 % 0.00 in /  0 mm
05:19 60.9 °F /  16.1 °C 47.8 °F /  8.8 °C 29.85 in /  1010.7 hPa Calm     62 % 0.00 in /  0 mm
05:24 61.2 °F /  16.2 °C 47.6 °F /  8.7 °C 29.86 in /  1011.1 hPa SSW 2.3 mph /  3.7 km/h 1.0 mph /  1.6 km/h 61 % 0.00 in /  0 mm
05:29 61.2 °F /  16.2 °C 47.6 °F /  8.7 °C 29.86 in /  1011.1 hPa Calm     61 % 0.00 in /  0 mm
05:34 60.9 °F /  16.1 °C 47.4 °F /  8.6 °C 29.86 in /  1011.1 hPa Calm     61 % 0.00 in /  0 mm
05:39 60.8 °F /  16 °C 47.7 °F /  8.7 °C 29.87 in /  1011.4 hPa Calm     62 % 0.00 in /  0 mm
05:44 60.6 °F /  15.9 °C 47.5 °F /  8.6 °C 29.87 in /  1011.4 hPa Calm     62 % 0.00 in /  0 mm
05:49 60.4 °F /  15.8 °C 47.3 °F /  8.5 °C 29.87 in /  1011.4 hPa Calm     62 % 0.00 in /  0 mm
05:54 60.2 °F /  15.7 °C 47.6 °F /  8.7 °C 29.87 in /  1011.4 hPa Calm     63 % 0.00 in /  0 mm
05:59 59.9 °F /  15.5 °C 47.3 °F /  8.5 °C 29.88 in /  1011.7 hPa SSW 3.5 mph /  5.6 km/h 2.3 mph /  3.7 km/h 63 % 0.00 in /  0 mm
06:04 59.9 °F /  15.5 °C 47.3 °F /  8.5 °C 29.89 in /  1012.1 hPa SSW 1.2 mph /  1.9 km/h   63 % 0.00 in /  0 mm
06:09 59.8 °F /  15.4 °C 46.7 °F /  8.2 °C 29.89 in /  1012.1 hPa SSW 2.3 mph /  3.7 km/h 2.1 mph /  3.4 km/h 62 % 0.00 in /  0 mm
06:14 59.7 °F /  15.4 °C 47.1 °F /  8.4 °C 29.89 in /  1012.1 hPa SSW 2.3 mph /  3.7 km/h 1.5 mph /  2.4 km/h 63 % 0.00 in /  0 mm
06:19 59.6 °F /  15.3 °C 47.0 °F /  8.3 °C 29.89 in /  1012.1 hPa SSW 1.2 mph /  1.9 km/h 0.1 mph /  0.2 km/h 63 % 0.00 in /  0 mm
06:24 59.5 °F /  15.3 °C 46.9 °F /  8.3 °C 29.89 in /  1012.1 hPa SSW 3.5 mph /  5.6 km/h 1.2 mph /  1.9 km/h 63 % 0.00 in /  0 mm
06:29 59.4 °F /  15.2 °C 46.4 °F /  8 °C 29.90 in /  1012.4 hPa SSW 2.3 mph /  3.7 km/h 1.9 mph /  3.1 km/h 62 % 0.00 in /  0 mm
06:34 59.3 °F /  15.2 °C 46.3 °F /  7.9 °C 29.90 in /  1012.4 hPa SSW 2.3 mph /  3.7 km/h 1.6 mph /  2.6 km/h 62 % 0.00 in /  0 mm
06:39 59.4 °F /  15.2 °C 45.9 °F /  7.7 °C 29.90 in /  1012.4 hPa SSW 2.3 mph /  3.7 km/h 0.2 mph /  0.3 km/h 61 % 0.00 in /  0 mm
06:44 59.4 °F /  15.2 °C 45.9 °F /  7.7 °C 29.91 in /  1012.8 hPa SSW 2.3 mph /  3.7 km/h 0.3 mph /  0.5 km/h 61 % 0.00 in /  0 mm
06:49 59.5 °F /  15.3 °C 46.0 °F /  7.8 °C 29.91 in /  1012.8 hPa SSW 3.5 mph /  5.6 km/h 2.5 mph /  4 km/h 61 % 0.00 in /  0 mm
06:54 59.8 °F /  15.4 °C 46.7 °F /  8.2 °C 29.91 in /  1012.8 hPa SSW 3.5 mph /  5.6 km/h 1.5 mph /  2.4 km/h 62 % 0.00 in /  0 mm
06:59 60.1 °F /  15.6 °C 46.6 °F /  8.1 °C 29.91 in /  1012.8 hPa SSW 2.3 mph /  3.7 km/h 2.6 mph /  4.2 km/h 61 % 0.00 in /  0 mm
07:04 60.4 °F /  15.8 °C 47.3 °F /  8.5 °C 29.91 in /  1012.8 hPa SSW 2.3 mph /  3.7 km/h 1.1 mph /  1.8 km/h 62 % 0.00 in /  0 mm
07:09 60.8 °F /  16 °C 47.7 °F /  8.7 °C 29.92 in /  1013.1 hPa SSW 4.0 mph /  6.4 km/h 2.6 mph /  4.2 km/h 62 % 0.00 in /  0 mm
07:14 61.3 °F /  16.3 °C 48.2 °F /  9 °C 29.91 in /  1012.8 hPa SSW 3.5 mph /  5.6 km/h 0.4 mph /  0.6 km/h 62 % 0.00 in /  0 mm
07:19 61.8 °F /  16.6 °C 48.6 °F /  9.2 °C 29.92 in /  1013.1 hPa SSW 2.3 mph /  3.7 km/h 1.6 mph /  2.6 km/h 62 % 0.00 in /  0 mm
07:24 62.5 °F /  16.9 °C 48.9 °F /  9.4 °C 29.92 in /  1013.1 hPa SSW 3.5 mph /  5.6 km/h 2.0 mph /  3.2 km/h 61 % 0.00 in /  0 mm
07:29 63.1 °F /  17.3 °C 49.0 °F /  9.4 °C 29.92 in /  1013.1 hPa SSW 2.3 mph /  3.7 km/h 0.5 mph /  0.8 km/h 60 % 0.00 in /  0 mm
07:34 63.6 °F /  17.6 °C 49.5 °F /  9.7 °C 29.92 in /  1013.1 hPa SSW 3.5 mph /  5.6 km/h 2.1 mph /  3.4 km/h 60 % 0.00 in /  0 mm
07:39 63.9 °F /  17.7 °C 49.7 °F /  9.8 °C 29.92 in /  1013.1 hPa SSW 3.5 mph /  5.6 km/h 2.2 mph /  3.5 km/h 60 % 0.00 in /  0 mm
07:44 64.2 °F /  17.9 °C 50.0 °F /  10 °C 29.92 in /  1013.1 hPa SSW 1.2 mph /  1.9 km/h 0.1 mph /  0.2 km/h 60 % 0.00 in /  0 mm
07:49 64.5 °F /  18.1 °C 49.8 °F /  9.9 °C 29.92 in /  1013.1 hPa SSW 3.5 mph /  5.6 km/h 1.8 mph /  2.9 km/h 59 % 0.00 in /  0 mm
07:54 64.7 °F /  18.2 °C 49.6 °F /  9.8 °C 29.92 in /  1013.1 hPa SSW 4.6 mph /  7.4 km/h 1.4 mph /  2.3 km/h 58 % 0.00 in /  0 mm
07:59 65.1 °F /  18.4 °C 50.0 °F /  10 °C 29.93 in /  1013.4 hPa SSW 3.5 mph /  5.6 km/h 2.6 mph /  4.2 km/h 58 % 0.00 in /  0 mm
08:04 65.4 °F /  18.6 °C 50.2 °F /  10.1 °C 29.93 in /  1013.4 hPa SSW 2.3 mph /  3.7 km/h 3.4 mph /  5.5 km/h 58 % 0.00 in /  0 mm
08:09 65.8 °F /  18.8 °C 50.6 °F /  10.3 °C 29.93 in /  1013.4 hPa SSW 3.5 mph /  5.6 km/h 3.0 mph /  4.8 km/h 58 % 0.00 in /  0 mm
08:14 66.2 °F /  19 °C 50.5 °F /  10.3 °C 29.93 in /  1013.4 hPa SSW 6.9 mph /  11.1 km/h 4.2 mph /  6.8 km/h 57 % 0.00 in /  0 mm
08:19 66.5 °F /  19.2 °C 50.8 °F /  10.4 °C 29.93 in /  1013.4 hPa South 8.1 mph /  13 km/h 4.7 mph /  7.6 km/h 57 % 0.00 in /  0 mm
08:24 66.7 °F /  19.3 °C 50.5 °F /  10.3 °C 29.93 in /  1013.4 hPa South 9.2 mph /  14.8 km/h 6.9 mph /  11.1 km/h 56 % 0.00 in /  0 mm
08:29 66.9 °F /  19.4 °C 51.2 °F /  10.7 °C 29.93 in /  1013.4 hPa South 8.1 mph /  13 km/h 5.9 mph /  9.5 km/h 57 % 0.00 in /  0 mm
08:34 67.1 °F /  19.5 °C 50.9 °F /  10.5 °C 29.93 in /  1013.4 hPa South 6.9 mph /  11.1 km/h 4.3 mph /  6.9 km/h 56 % 0.00 in /  0 mm
08:39 67.5 °F /  19.7 °C 51.2 °F /  10.7 °C 29.93 in /  1013.4 hPa South 10.4 mph /  16.7 km/h 5.5 mph /  8.9 km/h 56 % 0.00 in /  0 mm
08:42 67.8 °F /  19.9 °C 51.5 °F /  10.8 °C 29.93 in /  1013.4 hPa SSW 8.1 mph /  13 km/h 6.0 mph /  9.7 km/h 56 % 0.00 in /  0 mm
09:44 72.0 °F /  22.2 °C 51.8 °F /  11 °C 29.94 in /  1013.8 hPa South 11.5 mph /  18.5 km/h 7.2 mph /  11.6 km/h 49 % 0.00 in /  0 mm
09:49 72.3 °F /  22.4 °C 52.1 °F /  11.2 °C 29.94 in /  1013.8 hPa SSE 13.0 mph /  20.9 km/h 7.8 mph /  12.6 km/h 49 % 0.00 in /  0 mm
09:54 72.4 °F /  22.4 °C 52.2 °F /  11.2 °C 29.94 in /  1013.8 hPa South 11.5 mph /  18.5 km/h 6.6 mph /  10.6 km/h 49 % 0.00 in /  0 mm
09:59 72.3 °F /  22.4 °C 52.6 °F /  11.4 °C 29.94 in /  1013.8 hPa South 9.2 mph /  14.8 km/h 5.6 mph /  9 km/h 50 % 0.00 in /  0 mm
10:04 72.9 °F /  22.7 °C 52.6 °F /  11.4 °C 29.94 in /  1013.8 hPa South 10.4 mph /  16.7 km/h 5.9 mph /  9.5 km/h 49 % 0.00 in /  0 mm
10:09 73.3 °F /  22.9 °C 53.0 °F /  11.7 °C 29.94 in /  1013.8 hPa South 11.5 mph /  18.5 km/h 6.5 mph /  10.5 km/h 49 % 0.00 in /  0 mm
10:14 73.7 °F /  23.2 °C 52.8 °F /  11.6 °C 29.94 in /  1013.8 hPa South 10.4 mph /  16.7 km/h 6.2 mph /  10 km/h 48 % 0.00 in /  0 mm
10:19 73.7 °F /  23.2 °C 53.3 °F /  11.8 °C 29.94 in /  1013.8 hPa South 9.2 mph /  14.8 km/h 7.5 mph /  12.1 km/h 49 % 0.00 in /  0 mm
10:24 74.3 °F /  23.5 °C 54.5 °F /  12.5 °C 29.94 in /  1013.8 hPa South 11.5 mph /  18.5 km/h 9.2 mph /  14.8 km/h 50 % 0.00 in /  0 mm
10:29 74.6 °F /  23.7 °C 53.6 °F /  12 °C 29.94 in /  1013.8 hPa South 11.5 mph /  18.5 km/h 6.6 mph /  10.6 km/h 48 % 0.00 in /  0 mm
10:34 74.6 °F /  23.7 °C 52.4 °F /  11.3 °C 29.94 in /  1013.8 hPa South 9.2 mph /  14.8 km/h 5.9 mph /  9.5 km/h 46 % 0.00 in /  0 mm
10:39 74.5 °F /  23.6 °C 52.4 °F /  11.3 °C 29.94 in /  1013.8 hPa South 11.5 mph /  18.5 km/h 9.4 mph /  15.1 km/h 46 % 0.00 in /  0 mm
10:44 74.9 °F /  23.8 °C 52.7 °F /  11.5 °C 29.93 in /  1013.4 hPa South 11.5 mph /  18.5 km/h 7.6 mph /  12.2 km/h 46 % 0.00 in /  0 mm
10:49 75.2 °F /  24 °C 53.0 °F /  11.7 °C 29.93 in /  1013.4 hPa SE 18.4 mph /  29.6 km/h 8.7 mph /  14 km/h 46 % 0.00 in /  0 mm
10:54 76.1 °F /  24.5 °C 53.2 °F /  11.8 °C 29.93 in /  1013.4 hPa South 11.5 mph /  18.5 km/h 8.0 mph /  12.9 km/h 45 % 0.00 in /  0 mm
10:59 76.1 °F /  24.5 °C 53.2 °F /  11.8 °C 29.93 in /  1013.4 hPa South 13.8 mph /  22.2 km/h 8.2 mph /  13.2 km/h 45 % 0.00 in /  0 mm
11:04 76.2 °F /  24.6 °C 52.1 °F /  11.2 °C 29.93 in /  1013.4 hPa SSE 9.2 mph /  14.8 km/h 7.5 mph /  12.1 km/h 43 % 0.00 in /  0 mm
11:09 77.2 °F /  25.1 °C 54.2 °F /  12.3 °C 29.93 in /  1013.4 hPa SSE 9.2 mph /  14.8 km/h 6.7 mph /  10.8 km/h 45 % 0.00 in /  0 mm
11:14 78.2 °F /  25.7 °C 53.9 °F /  12.2 °C 29.92 in /  1013.1 hPa South 9.2 mph /  14.8 km/h 8.3 mph /  13.4 km/h 43 % 0.00 in /  0 mm
11:19 79.0 °F /  26.1 °C 53.3 °F /  11.8 °C 29.92 in /  1013.1 hPa SSE 13.8 mph /  22.2 km/h 9.1 mph /  14.6 km/h 41 % 0.00 in /  0 mm
11:24 78.9 °F /  26.1 °C 53.2 °F /  11.8 °C 29.92 in /  1013.1 hPa SE 11.0 mph /  17.7 km/h 8.9 mph /  14.3 km/h 41 % 0.00 in /  0 mm
11:29 79.4 °F /  26.3 °C 54.3 °F /  12.4 °C 29.92 in /  1013.1 hPa South 10.4 mph /  16.7 km/h 4.8 mph /  7.7 km/h 42 % 0.00 in /  0 mm
11:34 79.7 °F /  26.5 °C 52.5 °F /  11.4 °C 29.93 in /  1013.4 hPa South 15.0 mph /  24.1 km/h 10.2 mph /  16.4 km/h 39 % 0.00 in /  0 mm
11:39 79.2 °F /  26.2 °C 51.4 °F /  10.8 °C 29.93 in /  1013.4 hPa SSE 15.0 mph /  24.1 km/h 8.3 mph /  13.4 km/h 38 % 0.00 in /  0 mm
11:44 79.4 °F /  26.3 °C 53.0 °F /  11.7 °C 29.93 in /  1013.4 hPa South 11.5 mph /  18.5 km/h 7.5 mph /  12.1 km/h 40 % 0.00 in /  0 mm
11:49 79.4 °F /  26.3 °C 53.0 °F /  11.7 °C 29.92 in /  1013.1 hPa SE 19.0 mph /  30.6 km/h 12.5 mph /  20.1 km/h 40 % 0.00 in /  0 mm
11:54 80.2 °F /  26.8 °C 54.4 °F /  12.4 °C 29.92 in /  1013.1 hPa South 12.0 mph /  19.3 km/h 6.3 mph /  10.1 km/h 41 % 0.00 in /  0 mm
11:59 80.3 °F /  26.8 °C 53.1 °F /  11.7 °C 29.92 in /  1013.1 hPa SSE 11.5 mph /  18.5 km/h 8.2 mph /  13.2 km/h 39 % 0.00 in /  0 mm
12:04 80.3 °F /  26.8 °C 54.5 °F /  12.5 °C 29.92 in /  1013.1 hPa SSE 13.8 mph /  22.2 km/h 8.6 mph /  13.8 km/h 41 % 0.00 in /  0 mm
12:09 80.3 °F /  26.8 °C 53.8 °F /  12.1 °C 29.92 in /  1013.1 hPa SSW 10.4 mph /  16.7 km/h 9.2 mph /  14.8 km/h 40 % 0.00 in /  0 mm
12:14 80.1 °F /  26.7 °C 53.6 °F /  12 °C 29.93 in /  1013.4 hPa SSE 17.3 mph /  27.8 km/h 11.7 mph /  18.8 km/h 40 % 0.00 in /  0 mm
12:19 80.4 °F /  26.9 °C 54.5 °F /  12.5 °C 29.93 in /  1013.4 hPa South 13.8 mph /  22.2 km/h 8.3 mph /  13.4 km/h 41 % 0.00 in /  0 mm
12:24 80.6 °F /  27 °C 54.0 °F /  12.2 °C 29.93 in /  1013.4 hPa South 11.5 mph /  18.5 km/h 8.2 mph /  13.2 km/h 40 % 0.00 in /  0 mm
12:29 81.4 °F /  27.4 °C 54.1 °F /  12.3 °C 29.92 in /  1013.1 hPa SSE 11.5 mph /  18.5 km/h 8.5 mph /  13.7 km/h 39 % 0.00 in /  0 mm
12:34 82.4 °F /  28 °C 53.5 °F /  11.9 °C 29.93 in /  1013.4 hPa South 11.5 mph /  18.5 km/h 8.0 mph /  12.9 km/h 37 % 0.00 in /  0 mm
12:39 81.8 °F /  27.7 °C 53.7 °F /  12.1 °C 29.92 in /  1013.1 hPa SE 19.6 mph /  31.5 km/h 11.5 mph /  18.5 km/h 38 % 0.00 in /  0 mm
12:44 81.7 °F /  27.6 °C 52.9 °F /  11.6 °C 29.92 in /  1013.1 hPa South 12.0 mph /  19.3 km/h 7.4 mph /  11.9 km/h 37 % 0.00 in /  0 mm
12:49 82.4 °F /  28 °C 52.8 °F /  11.6 °C 29.92 in /  1013.1 hPa SSW 18.4 mph /  29.6 km/h 10.2 mph /  16.4 km/h 36 % 0.00 in /  0 mm
12:54 82.4 °F /  28 °C 52.8 °F /  11.6 °C 29.92 in /  1013.1 hPa SSW 16.1 mph /  25.9 km/h 8.6 mph /  13.8 km/h 36 % 0.00 in /  0 mm
12:59 82.5 °F /  28.1 °C 52.1 °F /  11.2 °C 29.92 in /  1013.1 hPa South 11.5 mph /  18.5 km/h 9.5 mph /  15.3 km/h 35 % 0.00 in /  0 mm
13:04 82.8 °F /  28.2 °C 51.6 °F /  10.9 °C 29.92 in /  1013.1 hPa SSW 16.0 mph /  25.7 km/h 10.6 mph /  17.1 km/h 34 % 0.00 in /  0 mm
13:09 82.8 °F /  28.2 °C 51.6 °F /  10.9 °C 29.92 in /  1013.1 hPa SW 12.7 mph /  20.4 km/h 7.3 mph /  11.7 km/h 34 % 0.00 in /  0 mm
13:14 82.7 °F /  28.2 °C 50.7 °F /  10.4 °C 29.92 in /  1013.1 hPa SSE 13.8 mph /  22.2 km/h 7.7 mph /  12.4 km/h 33 % 0.00 in /  0 mm
13:19 83.0 °F /  28.3 °C 51.7 °F /  10.9 °C 29.92 in /  1013.1 hPa South 12.0 mph /  19.3 km/h 9.0 mph /  14.5 km/h 34 % 0.00 in /  0 mm
13:24 83.5 °F /  28.6 °C 51.4 °F /  10.8 °C 29.92 in /  1013.1 hPa SSW 11.5 mph /  18.5 km/h 10.8 mph /  17.4 km/h 33 % 0.00 in /  0 mm
13:29 83.8 °F /  28.8 °C 52.4 °F /  11.3 °C 29.91 in /  1012.8 hPa SSE 8.1 mph /  13 km/h 7.1 mph /  11.4 km/h 34 % 0.00 in /  0 mm
13:34 84.2 °F /  29 °C 52.8 °F /  11.6 °C 29.91 in /  1012.8 hPa SSW 15.0 mph /  24.1 km/h 10.6 mph /  17.1 km/h 34 % 0.00 in /  0 mm
13:39 83.5 °F /  28.6 °C 51.4 °F /  10.8 °C 29.91 in /  1012.8 hPa South 12.7 mph /  20.4 km/h 7.0 mph /  11.3 km/h 33 % 0.00 in /  0 mm
13:44 83.6 °F /  28.7 °C 52.3 °F /  11.3 °C 29.91 in /  1012.8 hPa SSW 12.7 mph /  20.4 km/h 10.3 mph /  16.6 km/h 34 % 0.00 in /  0 mm
13:49 83.4 °F /  28.6 °C 52.1 °F /  11.2 °C 29.91 in /  1012.8 hPa SSW 12.7 mph /  20.4 km/h 7.9 mph /  12.7 km/h 34 % 0.00 in /  0 mm
13:54 83.6 °F /  28.7 °C 52.3 °F /  11.3 °C 29.91 in /  1012.8 hPa SSW 17.0 mph /  27.4 km/h 11.7 mph /  18.8 km/h 34 % 0.00 in /  0 mm
13:59 83.7 °F /  28.7 °C 52.3 °F /  11.3 °C 29.91 in /  1012.8 hPa South 18.4 mph /  29.6 km/h 14.6 mph /  23.5 km/h 34 % 0.00 in /  0 mm
14:04 84.0 °F /  28.9 °C 51.8 °F /  11 °C 29.91 in /  1012.8 hPa SSW 17.0 mph /  27.4 km/h 10.6 mph /  17.1 km/h 33 % 0.00 in /  0 mm
14:09 84.1 °F /  28.9 °C 52.7 °F /  11.5 °C 29.91 in /  1012.8 hPa SW 15.0 mph /  24.1 km/h 12.1 mph /  19.5 km/h 34 % 0.00 in /  0 mm
14:14 84.0 °F /  28.9 °C 53.4 °F /  11.9 °C 29.91 in /  1012.8 hPa South 13.8 mph /  22.2 km/h 7.7 mph /  12.4 km/h 35 % 0.00 in /  0 mm
14:19 84.4 °F /  29.1 °C 53.8 °F /  12.1 °C 29.91 in /  1012.8 hPa SSE 13.8 mph /  22.2 km/h 10.9 mph /  17.5 km/h 35 % 0.00 in /  0 mm
14:24 84.5 °F /  29.2 °C 53.0 °F /  11.7 °C 29.91 in /  1012.8 hPa SW 19.6 mph /  31.5 km/h 11.0 mph /  17.7 km/h 34 % 0.00 in /  0 mm
14:29 84.2 °F /  29 °C 53.6 °F /  12 °C 29.91 in /  1012.8 hPa South 16.1 mph /  25.9 km/h 9.5 mph /  15.3 km/h 35 % 0.00 in /  0 mm
14:34 84.2 °F /  29 °C 53.6 °F /  12 °C 29.91 in /  1012.8 hPa South 13.8 mph /  22.2 km/h 10.2 mph /  16.4 km/h 35 % 0.00 in /  0 mm
14:39 84.6 °F /  29.2 °C 53.1 °F /  11.7 °C 29.91 in /  1012.8 hPa South 14.0 mph /  22.5 km/h 10.4 mph /  16.7 km/h 34 % 0.00 in /  0 mm
14:44 84.2 °F /  29 °C 53.6 °F /  12 °C 29.91 in /  1012.8 hPa South 16.1 mph /  25.9 km/h 10.4 mph /  16.7 km/h 35 % 0.00 in /  0 mm
14:49 84.0 °F /  28.9 °C 53.4 °F /  11.9 °C 29.91 in /  1012.8 hPa South 16.0 mph /  25.7 km/h 10.1 mph /  16.3 km/h 35 % 0.00 in /  0 mm
14:54 84.0 °F /  28.9 °C 53.4 °F /  11.9 °C 29.91 in /  1012.8 hPa SSW 15.0 mph /  24.1 km/h 13.0 mph /  20.9 km/h 35 % 0.00 in /  0 mm
14:59 84.4 °F /  29.1 °C 53.8 °F /  12.1 °C 29.91 in /  1012.8 hPa South 18.4 mph /  29.6 km/h 5.5 mph /  8.9 km/h 35 % 0.00 in /  0 mm
15:04 84.5 °F /  29.2 °C 53.8 °F /  12.1 °C 29.92 in /  1013.1 hPa SSW 16.1 mph /  25.9 km/h 6.6 mph /  10.6 km/h 35 % 0.00 in /  0 mm
15:09 84.4 °F /  29.1 °C 53.8 °F /  12.1 °C 29.91 in /  1012.8 hPa South 17.3 mph /  27.8 km/h 9.3 mph /  15 km/h 35 % 0.00 in /  0 mm
15:14 85.0 °F /  29.4 °C 53.5 °F /  11.9 °C 29.92 in /  1013.1 hPa SSE 13.8 mph /  22.2 km/h 9.3 mph /  15 km/h 34 % 0.00 in /  0 mm
15:19 85.1 °F /  29.5 °C 53.6 °F /  12 °C 29.92 in /  1013.1 hPa South 16.1 mph /  25.9 km/h 9.4 mph /  15.1 km/h 34 % 0.00 in /  0 mm
15:24 84.1 °F /  28.9 °C 53.5 °F /  11.9 °C 29.92 in /  1013.1 hPa SSW 19.6 mph /  31.5 km/h 12.0 mph /  19.3 km/h 35 % 0.00 in /  0 mm
15:29 83.6 °F /  28.7 °C 53.1 °F /  11.7 °C 29.92 in /  1013.1 hPa South 17.3 mph /  27.8 km/h 11.7 mph /  18.8 km/h 35 % 0.00 in /  0 mm
15:34 83.4 °F /  28.6 °C 52.9 °F /  11.6 °C 29.92 in /  1013.1 hPa SSW 24.2 mph /  38.9 km/h 11.2 mph /  18 km/h 35 % 0.00 in /  0 mm
15:39 82.9 °F /  28.3 °C 52.4 °F /  11.3 °C 29.92 in /  1013.1 hPa SSW 18.4 mph /  29.6 km/h 13.9 mph /  22.4 km/h 35 % 0.00 in /  0 mm
15:44 83.2 °F /  28.4 °C 52.7 °F /  11.5 °C 29.93 in /  1013.4 hPa SSW 21.9 mph /  35.2 km/h 14.7 mph /  23.7 km/h 35 % 0.00 in /  0 mm
15:49 83.2 °F /  28.4 °C 52.7 °F /  11.5 °C 29.93 in /  1013.4 hPa South 20.7 mph /  33.3 km/h 10.7 mph /  17.2 km/h 35 % 0.00 in /  0 mm
15:54 83.0 °F /  28.3 °C 52.5 °F /  11.4 °C 29.93 in /  1013.4 hPa SSW 11.5 mph /  18.5 km/h 9.1 mph /  14.6 km/h 35 % 0.00 in /  0 mm
15:59 82.2 °F /  27.9 °C 52.6 °F /  11.4 °C 29.93 in /  1013.4 hPa SSW 21.9 mph /  35.2 km/h 16.4 mph /  26.4 km/h 36 % 0.00 in /  0 mm
16:04 81.4 °F /  27.4 °C 51.9 °F /  11.1 °C 29.93 in /  1013.4 hPa South 28.8 mph /  46.3 km/h 13.1 mph /  21.1 km/h 36 % 0.00 in /  0 mm
16:09 81.7 °F /  27.6 °C 52.1 °F /  11.2 °C 29.94 in /  1013.8 hPa SW 19.6 mph /  31.5 km/h 15.2 mph /  24.5 km/h 36 % 0.00 in /  0 mm
16:14 81.5 °F /  27.5 °C 51.2 °F /  10.7 °C 29.93 in /  1013.4 hPa SSE 23.0 mph /  37 km/h 15.6 mph /  25.1 km/h 35 % 0.00 in /  0 mm
16:19 81.0 °F /  27.2 °C 51.5 °F /  10.8 °C 29.94 in /  1013.8 hPa SSE 19.0 mph /  30.6 km/h 15.9 mph /  25.6 km/h 36 % 0.00 in /  0 mm
16:24 80.6 °F /  27 °C 51.2 °F /  10.7 °C 29.94 in /  1013.8 hPa SSW 26.5 mph /  42.6 km/h 18.0 mph /  29 km/h 36 % 0.00 in /  0 mm
16:29 80.1 °F /  26.7 °C 50.7 °F /  10.4 °C 29.94 in /  1013.8 hPa SSW 23.0 mph /  37 km/h 13.8 mph /  22.2 km/h 36 % 0.00 in /  0 mm
16:34 80.3 °F /  26.8 °C 50.9 °F /  10.5 °C 29.94 in /  1013.8 hPa SSW 19.6 mph /  31.5 km/h 14.0 mph /  22.5 km/h 36 % 0.00 in /  0 mm
16:39 80.2 °F /  26.8 °C 50.8 °F /  10.4 °C 29.94 in /  1013.8 hPa SE 21.9 mph /  35.2 km/h 10.9 mph /  17.5 km/h 36 % 0.00 in /  0 mm
16:44 80.4 °F /  26.9 °C 50.2 °F /  10.1 °C 29.94 in /  1013.8 hPa South 16.1 mph /  25.9 km/h 16.3 mph /  26.2 km/h 35 % 0.00 in /  0 mm
16:49 79.6 °F /  26.4 °C 49.5 °F /  9.7 °C 29.94 in /  1013.8 hPa South 18.4 mph /  29.6 km/h 7.8 mph /  12.6 km/h 35 % 0.00 in /  0 mm
16:54 79.5 °F /  26.4 °C 50.2 °F /  10.1 °C 29.95 in /  1014.1 hPa South 19.0 mph /  30.6 km/h 11.9 mph /  19.2 km/h 36 % 0.00 in /  0 mm
16:59 79.2 °F /  26.2 °C 49.2 °F /  9.6 °C 29.94 in /  1013.8 hPa South 22.0 mph /  35.4 km/h 11.6 mph /  18.7 km/h 35 % 0.00 in /  0 mm
17:04 78.9 °F /  26.1 °C 48.1 °F /  8.9 °C 29.95 in /  1014.1 hPa SSW 24.2 mph /  38.9 km/h 12.3 mph /  19.8 km/h 34 % 0.00 in /  0 mm
17:09 78.9 °F /  26.1 °C 48.1 °F /  8.9 °C 29.95 in /  1014.1 hPa SE 17.3 mph /  27.8 km/h 12.5 mph /  20.1 km/h 34 % 0.00 in /  0 mm
17:14 78.5 °F /  25.8 °C 47.0 °F /  8.3 °C 29.95 in /  1014.1 hPa SSW 26.5 mph /  42.6 km/h 14.4 mph /  23.2 km/h 33 % 0.00 in /  0 mm
17:19 78.0 °F /  25.6 °C 46.6 °F /  8.1 °C 29.95 in /  1014.1 hPa South 24.2 mph /  38.9 km/h 14.7 mph /  23.7 km/h 33 % 0.00 in /  0 mm
17:24 77.9 °F /  25.5 °C 46.5 °F /  8.1 °C 29.96 in /  1014.4 hPa South 26.5 mph /  42.6 km/h 16.7 mph /  26.9 km/h 33 % 0.00 in /  0 mm
17:29 77.9 °F /  25.5 °C 46.5 °F /  8.1 °C 29.96 in /  1014.4 hPa South 18.4 mph /  29.6 km/h 14.9 mph /  24 km/h 33 % 0.00 in /  0 mm
17:34 77.1 °F /  25.1 °C 46.6 °F /  8.1 °C 29.96 in /  1014.4 hPa South 20.7 mph /  33.3 km/h 12.0 mph /  19.3 km/h 34 % 0.00 in /  0 mm
17:39 77.0 °F /  25 °C 46.5 °F /  8.1 °C 29.96 in /  1014.4 hPa South 23.0 mph /  37 km/h 12.9 mph /  20.8 km/h 34 % 0.00 in /  0 mm
17:44 76.8 °F /  24.9 °C 46.3 °F /  7.9 °C 29.96 in /  1014.4 hPa SSE 19.6 mph /  31.5 km/h 11.6 mph /  18.7 km/h 34 % 0.00 in /  0 mm
17:49 77.2 °F /  25.1 °C 46.7 °F /  8.2 °C 29.96 in /  1014.4 hPa SSW 23.0 mph /  37 km/h 13.3 mph /  21.4 km/h 34 % 0.00 in /  0 mm
17:54 76.4 °F /  24.7 °C 45.9 °F /  7.7 °C 29.96 in /  1014.4 hPa SSW 25.3 mph /  40.7 km/h 17.4 mph /  28 km/h 34 % 0.00 in /  0 mm
17:59 75.9 °F /  24.4 °C 46.3 °F /  7.9 °C 29.97 in /  1014.8 hPa South 16.1 mph /  25.9 km/h 12.7 mph /  20.4 km/h 35 % 0.00 in /  0 mm
18:04 75.4 °F /  24.1 °C 45.1 °F /  7.3 °C 29.97 in /  1014.8 hPa South 20.7 mph /  33.3 km/h 11.1 mph /  17.9 km/h 34 % 0.00 in /  0 mm
18:09 75.2 °F /  24 °C 45.7 °F /  7.6 °C 29.97 in /  1014.8 hPa South 17.3 mph /  27.8 km/h 10.4 mph /  16.7 km/h 35 % 0.00 in /  0 mm
18:14 74.8 °F /  23.8 °C 45.3 °F /  7.4 °C 29.97 in /  1014.8 hPa SSE 24.2 mph /  38.9 km/h 16.1 mph /  25.9 km/h 35 % 0.00 in /  0 mm
18:19 74.7 °F /  23.7 °C 45.2 °F /  7.3 °C 29.98 in /  1015.1 hPa South 24.2 mph /  38.9 km/h 13.5 mph /  21.7 km/h 35 % 0.00 in /  0 mm
18:24 74.6 °F /  23.7 °C 45.1 °F /  7.3 °C 29.98 in /  1015.1 hPa South 19.6 mph /  31.5 km/h 12.0 mph /  19.3 km/h 35 % 0.00 in /  0 mm
18:29 74.8 °F /  23.8 °C 45.3 °F /  7.4 °C 29.98 in /  1015.1 hPa SSE 17.3 mph /  27.8 km/h 8.7 mph /  14 km/h 35 % 0.00 in /  0 mm
18:34 74.5 °F /  23.6 °C 44.3 °F /  6.8 °C 29.98 in /  1015.1 hPa SSE 25.3 mph /  40.7 km/h 9.7 mph /  15.6 km/h 34 % 0.00 in /  0 mm
18:39 74.0 °F /  23.3 °C 43.8 °F /  6.6 °C 29.98 in /  1015.1 hPa SSE 26.5 mph /  42.6 km/h 17.6 mph /  28.3 km/h 34 % 0.00 in /  0 mm
18:44 73.6 °F /  23.1 °C 44.2 °F /  6.8 °C 29.98 in /  1015.1 hPa North 19.6 mph /  31.5 km/h 12.3 mph /  19.8 km/h 35 % 0.00 in /  0 mm
18:49 73.9 °F /  23.3 °C 44.5 °F /  6.9 °C 29.98 in /  1015.1 hPa SSW 11.5 mph /  18.5 km/h 8.6 mph /  13.8 km/h 35 % 0.00 in /  0 mm
18:54 73.4 °F /  23 °C 43.3 °F /  6.3 °C 29.98 in /  1015.1 hPa South 24.2 mph /  38.9 km/h 15.2 mph /  24.5 km/h 34 % 0.00 in /  0 mm
18:59 73.2 °F /  22.9 °C 43.1 °F /  6.2 °C 29.98 in /  1015.1 hPa SSW 20.0 mph /  32.2 km/h 14.6 mph /  23.5 km/h 34 % 0.00 in /  0 mm
19:04 73.1 °F /  22.8 °C 43.8 °F /  6.6 °C 29.99 in /  1015.5 hPa SSW 17.3 mph /  27.8 km/h 12.7 mph /  20.4 km/h 35 % 0.00 in /  0 mm
19:09 72.3 °F /  22.4 °C 43.8 °F /  6.6 °C 29.99 in /  1015.5 hPa SSW 27.0 mph /  43.5 km/h 16.7 mph /  26.9 km/h 36 % 0.00 in /  0 mm
19:14 72.0 °F /  22.2 °C 43.6 °F /  6.4 °C 29.99 in /  1015.5 hPa South 21.9 mph /  35.2 km/h 12.3 mph /  19.8 km/h 36 % 0.00 in /  0 mm
19:19 71.9 °F /  22.2 °C 44.2 °F /  6.8 °C 29.99 in /  1015.5 hPa SSE 24.2 mph /  38.9 km/h 11.8 mph /  19 km/h 37 % 0.00 in /  0 mm
19:24 71.6 °F /  22 °C 43.2 °F /  6.2 °C 30.00 in /  1015.8 hPa South 20.7 mph /  33.3 km/h 12.7 mph /  20.4 km/h 36 % 0.00 in /  0 mm
19:29 71.4 °F /  21.9 °C 43.8 °F /  6.6 °C 30.00 in /  1015.8 hPa SSE 18.4 mph /  29.6 km/h 12.8 mph /  20.6 km/h 37 % 0.00 in /  0 mm
19:34 71.2 °F /  21.8 °C 42.9 °F /  6.1 °C 30.00 in /  1015.8 hPa South 21.0 mph /  33.8 km/h 14.3 mph /  23 km/h 36 % 0.00 in /  0 mm
19:39 70.9 °F /  21.6 °C 43.3 °F /  6.3 °C 30.00 in /  1015.8 hPa South 24.2 mph /  38.9 km/h 13.6 mph /  21.9 km/h 37 % 0.00 in /  0 mm
19:44 70.4 °F /  21.3 °C 43.6 °F /  6.4 °C 30.01 in /  1016.1 hPa SSE 20.7 mph /  33.3 km/h 12.3 mph /  19.8 km/h 38 % 0.00 in /  0 mm
19:49 70.2 °F /  21.2 °C 42.7 °F /  5.9 °C 30.01 in /  1016.1 hPa South 18.4 mph /  29.6 km/h 13.7 mph /  22 km/h 37 % 0.00 in /  0 mm
19:54 70.0 °F /  21.1 °C 42.5 °F /  5.8 °C 30.01 in /  1016.1 hPa South 21.0 mph /  33.8 km/h 10.2 mph /  16.4 km/h 37 % 0.00 in /  0 mm
19:59 69.7 °F /  20.9 °C 42.3 °F /  5.7 °C 30.01 in /  1016.1 hPa South 19.6 mph /  31.5 km/h 10.9 mph /  17.5 km/h 37 % 0.00 in /  0 mm
20:04 69.4 °F /  20.8 °C 42.7 °F /  5.9 °C 30.02 in /  1016.5 hPa South 21.0 mph /  33.8 km/h 14.9 mph /  24 km/h 38 % 0.00 in /  0 mm
20:09 69.0 °F /  20.6 °C 42.3 °F /  5.7 °C 30.02 in /  1016.5 hPa SSW 23.0 mph /  37 km/h 16.6 mph /  26.7 km/h 38 % 0.00 in /  0 mm
20:14 68.6 °F /  20.3 °C 41.3 °F /  5.2 °C 30.02 in /  1016.5 hPa South 18.4 mph /  29.6 km/h 13.0 mph /  20.9 km/h 37 % 0.00 in /  0 mm
20:19 68.3 °F /  20.2 °C 41.0 °F /  5 °C 30.03 in /  1016.8 hPa South 23.0 mph /  37 km/h 13.7 mph /  22 km/h 37 % 0.00 in /  0 mm
20:24 67.9 °F /  19.9 °C 41.3 °F /  5.2 °C 30.02 in /  1016.5 hPa South 15.0 mph /  24.1 km/h 5.8 mph /  9.3 km/h 38 % 0.00 in /  0 mm
20:29 67.4 °F /  19.7 °C 40.9 °F /  4.9 °C 30.03 in /  1016.8 hPa South 21.9 mph /  35.2 km/h 13.2 mph /  21.2 km/h 38 % 0.00 in /  0 mm
20:34 67.1 °F /  19.5 °C 42.0 °F /  5.6 °C 30.03 in /  1016.8 hPa South 16.1 mph /  25.9 km/h 7.4 mph /  11.9 km/h 40 % 0.00 in /  0 mm
20:39 66.6 °F /  19.2 °C 42.2 °F /  5.7 °C 30.03 in /  1016.8 hPa South 17.3 mph /  27.8 km/h 8.8 mph /  14.2 km/h 41 % 0.00 in /  0 mm
20:44 66.1 °F /  18.9 °C 42.9 °F /  6.1 °C 30.04 in /  1017.2 hPa SSW 19.6 mph /  31.5 km/h 9.8 mph /  15.8 km/h 43 % 0.00 in /  0 mm
20:49 65.7 °F /  18.7 °C 43.8 °F /  6.6 °C 30.04 in /  1017.2 hPa South 18.0 mph /  29 km/h 9.1 mph /  14.6 km/h 45 % 0.00 in /  0 mm
20:54 65.3 °F /  18.5 °C 43.4 °F /  6.3 °C 30.04 in /  1017.2 hPa South 15.0 mph /  24.1 km/h 12.4 mph /  20 km/h 45 % 0.00 in /  0 mm
20:59 64.9 °F /  18.3 °C 43.6 °F /  6.4 °C 30.04 in /  1017.2 hPa South 13.8 mph /  22.2 km/h 9.7 mph /  15.6 km/h 46 % 0.00 in /  0 mm
21:04 64.5 °F /  18.1 °C 44.4 °F /  6.9 °C 30.04 in /  1017.2 hPa South 17.3 mph /  27.8 km/h 12.8 mph /  20.6 km/h 48 % 0.00 in /  0 mm
21:09 64.1 °F /  17.8 °C 44.5 °F /  6.9 °C 30.04 in /  1017.2 hPa South 15.0 mph /  24.1 km/h 10.6 mph /  17.1 km/h 49 % 0.00 in /  0 mm
21:14 63.7 °F /  17.6 °C 44.2 °F /  6.8 °C 30.04 in /  1017.2 hPa SSE 19.6 mph /  31.5 km/h 10.3 mph /  16.6 km/h 49 % 0.00 in /  0 mm
21:19 63.3 °F /  17.4 °C 44.9 °F /  7.2 °C 30.04 in /  1017.2 hPa South 19.6 mph /  31.5 km/h 11.8 mph /  19 km/h 51 % 0.00 in /  0 mm
21:24 62.9 °F /  17.2 °C 45.0 °F /  7.2 °C 30.05 in /  1017.5 hPa SSE 19.6 mph /  31.5 km/h 12.1 mph /  19.5 km/h 52 % 0.00 in /  0 mm
21:29 62.5 °F /  16.9 °C 45.6 °F /  7.6 °C 30.05 in /  1017.5 hPa South 20.7 mph /  33.3 km/h 9.9 mph /  15.9 km/h 54 % 0.00 in /  0 mm
21:34 62.2 °F /  16.8 °C 45.8 °F /  7.7 °C 30.06 in /  1017.8 hPa South 16.0 mph /  25.7 km/h 11.6 mph /  18.7 km/h 55 % 0.00 in /  0 mm
21:39 61.9 °F /  16.6 °C 45.5 °F /  7.5 °C 30.06 in /  1017.8 hPa South 17.3 mph /  27.8 km/h 9.8 mph /  15.8 km/h 55 % 0.00 in /  0 mm
21:44 61.6 °F /  16.4 °C 45.3 °F /  7.4 °C 30.06 in /  1017.8 hPa SSW 15.0 mph /  24.1 km/h 6.3 mph /  10.1 km/h 55 % 0.00 in /  0 mm
21:49 61.3 °F /  16.3 °C 45.5 °F /  7.5 °C 30.06 in /  1017.8 hPa South 13.0 mph /  20.9 km/h 10.0 mph /  16.1 km/h 56 % 0.00 in /  0 mm
21:54 61.0 °F /  16.1 °C 45.2 °F /  7.3 °C 30.06 in /  1017.8 hPa South 12.0 mph /  19.3 km/h 8.7 mph /  14 km/h 56 % 0.00 in /  0 mm
21:59 60.6 °F /  15.9 °C 45.3 °F /  7.4 °C 30.06 in /  1017.8 hPa South 18.0 mph /  29 km/h 11.3 mph /  18.2 km/h 57 % 0.00 in /  0 mm
22:04 60.3 °F /  15.7 °C 45.5 °F /  7.5 °C 30.06 in /  1017.8 hPa South 11.5 mph /  18.5 km/h 7.8 mph /  12.6 km/h 58 % 0.00 in /  0 mm
22:09 60.1 °F /  15.6 °C 45.7 °F /  7.6 °C 30.06 in /  1017.8 hPa South 16.1 mph /  25.9 km/h 10.7 mph /  17.2 km/h 59 % 0.00 in /  0 mm
22:14 59.7 °F /  15.4 °C 45.8 °F /  7.7 °C 30.06 in /  1017.8 hPa South 13.8 mph /  22.2 km/h 9.5 mph /  15.3 km/h 60 % 0.00 in /  0 mm
22:19 59.5 °F /  15.3 °C 46.0 °F /  7.8 °C 30.07 in /  1018.2 hPa SSE 13.8 mph /  22.2 km/h 10.0 mph /  16.1 km/h 61 % 0.00 in /  0 mm
22:24 59.2 °F /  15.1 °C 46.2 °F /  7.9 °C 30.07 in /  1018.2 hPa South 11.5 mph /  18.5 km/h 6.6 mph /  10.6 km/h 62 % 0.00 in /  0 mm
22:29 59.0 °F /  15 °C 46.4 °F /  8 °C 30.07 in /  1018.2 hPa SSE 18.4 mph /  29.6 km/h 9.4 mph /  15.1 km/h 63 % 0.00 in /  0 mm
22:34 58.8 °F /  14.9 °C 46.6 °F /  8.1 °C 30.07 in /  1018.2 hPa South 16.0 mph /  25.7 km/h 8.6 mph /  13.8 km/h 64 % 0.00 in /  0 mm
22:39 58.6 °F /  14.8 °C 46.5 °F /  8.1 °C 30.07 in /  1018.2 hPa SSE 12.7 mph /  20.4 km/h 8.8 mph /  14.2 km/h 64 % 0.00 in /  0 mm
22:44 58.4 °F /  14.7 °C 46.7 °F /  8.2 °C 30.07 in /  1018.2 hPa South 12.7 mph /  20.4 km/h 7.3 mph /  11.7 km/h 65 % 0.00 in /  0 mm
22:49 58.1 °F /  14.5 °C 46.8 °F /  8.2 °C 30.07 in /  1018.2 hPa South 13.8 mph /  22.2 km/h 10.8 mph /  17.4 km/h 66 % 0.00 in /  0 mm
22:54 57.9 °F /  14.4 °C 47.0 °F /  8.3 °C 30.07 in /  1018.2 hPa North 18.4 mph /  29.6 km/h 11.0 mph /  17.7 km/h 67 % 0.00 in /  0 mm
22:59 57.7 °F /  14.3 °C 47.2 °F /  8.4 °C 30.07 in /  1018.2 hPa SSE 19.0 mph /  30.6 km/h 10.8 mph /  17.4 km/h 68 % 0.00 in /  0 mm
23:03 57.5 °F /  14.2 °C 47.4 °F /  8.6 °C 30.07 in /  1018.2 hPa South 16.1 mph /  25.9 km/h 11.1 mph /  17.9 km/h 69 % 0.00 in /  0 mm
23:09 57.3 °F /  14.1 °C 47.6 °F /  8.7 °C 30.07 in /  1018.2 hPa South 19.6 mph /  31.5 km/h 10.9 mph /  17.5 km/h 70 % 0.00 in /  0 mm
23:14 57.1 °F /  13.9 °C 47.8 °F /  8.8 °C 30.07 in /  1018.2 hPa South 18.4 mph /  29.6 km/h 11.1 mph /  17.9 km/h 71 % 0.00 in /  0 mm
23:19 56.9 °F /  13.8 °C 48.0 °F /  8.9 °C 30.08 in /  1018.5 hPa South 12.7 mph /  20.4 km/h 6.2 mph /  10 km/h 72 % 0.00 in /  0 mm
23:24 56.7 °F /  13.7 °C 48.1 °F /  8.9 °C 30.08 in /  1018.5 hPa SSE 13.8 mph /  22.2 km/h 8.6 mph /  13.8 km/h 73 % 0.00 in /  0 mm
23:29 56.5 °F /  13.6 °C 47.9 °F /  8.8 °C 30.08 in /  1018.5 hPa South 13.8 mph /  22.2 km/h 11.2 mph /  18 km/h 73 % 0.00 in /  0 mm
23:34 56.3 °F /  13.5 °C 48.1 °F /  8.9 °C 30.08 in /  1018.5 hPa South 15.0 mph /  24.1 km/h 11.8 mph /  19 km/h 74 % 0.00 in /  0 mm
23:39 56.2 °F /  13.4 °C 48.4 °F /  9.1 °C 30.08 in /  1018.5 hPa North 15.0 mph /  24.1 km/h 7.3 mph /  11.7 km/h 75 % 0.00 in /  0 mm
23:44 56.0 °F /  13.3 °C 48.2 °F /  9 °C 30.08 in /  1018.5 hPa North 12.7 mph /  20.4 km/h 10.2 mph /  16.4 km/h 75 % 0.00 in /  0 mm
23:49 55.8 °F /  13.2 °C 48.3 °F /  9.1 °C 30.08 in /  1018.5 hPa SSE 17.3 mph /  27.8 km/h 7.3 mph /  11.7 km/h 76 % 0.00 in /  0 mm
23:54 55.6 °F /  13.1 °C 48.2 °F /  9 °C 30.07 in /  1018.2 hPa North 15.0 mph /  24.1 km/h 8.4 mph /  13.5 km/h 76 % 0.00 in /  0 mm
23:59 55.5 °F /  13.1 °C 48.4 °F /  9.1 °C 30.07 in /  1018.2 hPa SSE 15.0 mph /  24.1 km/h 8.8 mph /  14.2 km/h 77 % 0.00 in /  0 mm
Ararat Weather
Compliments of Weather Underground - 2.25 mb
Click here to send mail.


ABOUT

Live weather data from Ararat, Victoria, Australia, 3377
Data uploaded from Cumulus every 5 minutes to Weather Underground.
This site then downloads the raw data for formatting and display.
Metric and imperial data can be displayed. Graphs and historical data available.
Includes Sun and Moon times and rain image live from BOM.

Check out Ararat Weather on Facebook, Twitter and Google +

Help support ongoing costs by checking out the ads





Follow @AraratWeather